createdAt,value
2023-02-19T00:00:49.012Z,20.3
2023-02-19T00:04:31.041Z,19.3
2023-02-19T00:06:59.297Z,17.5
2023-02-19T00:09:27.557Z,17.5
2023-02-19T00:11:55.815Z,18.9
2023-02-19T00:14:24.067Z,19.1
2023-02-19T00:16:52.325Z,24.3
2023-02-19T00:19:20.585Z,22.8
2023-02-19T00:21:48.836Z,18.7
2023-02-19T00:24:17.101Z,17.7
2023-02-19T00:25:31.833Z,17.8
2023-02-19T00:26:45.373Z,21.3
2023-02-19T00:29:13.631Z,16.5
2023-02-19T00:31:41.891Z,18.8
2023-02-19T00:36:38.407Z,19.8
2023-02-19T00:39:06.662Z,17.8
2023-02-19T00:41:34.919Z,16.8
2023-02-19T00:44:03.170Z,23.8
2023-02-19T00:46:31.433Z,23.7
2023-02-19T00:48:59.693Z,20.4
2023-02-19T00:50:14.421Z,27.7
2023-02-19T00:51:27.965Z,18
2023-02-19T00:53:56.222Z,29.3
2023-02-19T00:56:24.484Z,19.6
2023-02-19T00:58:52.745Z,30.9
2023-02-19T01:01:20.996Z,18.1
2023-02-19T01:03:49.252Z,24.2
2023-02-19T01:08:45.770Z,32
2023-02-19T01:11:14.028Z,26.1
2023-02-19T01:13:42.288Z,21.3
2023-02-19T01:14:57.020Z,23
2023-02-19T01:16:10.566Z,25.4
2023-02-19T01:18:38.822Z,17.5
2023-02-19T01:21:07.073Z,19.5
2023-02-19T01:23:35.333Z,21.7
2023-02-19T01:26:03.592Z,18.9
2023-02-19T01:28:31.852Z,27.2
2023-02-19T01:31:00.108Z,22.8
2023-02-19T01:33:28.364Z,26.5
2023-02-19T01:35:56.625Z,19.9
2023-02-19T01:39:39.615Z,21.2
2023-02-19T01:40:53.154Z,19.4
2023-02-19T01:43:21.419Z,23
2023-02-19T01:45:49.671Z,20.1
2023-02-19T01:48:17.928Z,18.8
2023-02-19T01:50:46.185Z,21
2023-02-19T01:53:14.439Z,15.1
2023-02-19T01:55:42.699Z,14.9
2023-02-19T01:58:10.954Z,13.6
2023-02-19T02:00:39.212Z,14.5
2023-02-19T02:03:07.473Z,14.4
2023-02-19T02:04:22.210Z,9.5
2023-02-19T02:05:35.751Z,10.8
2023-02-19T02:10:32.266Z,16.1
2023-02-19T02:13:00.522Z,14.5
2023-02-19T02:15:28.778Z,11.2
2023-02-19T02:17:57.039Z,9.6
2023-02-19T02:20:25.288Z,9.8
2023-02-19T02:22:53.549Z,11.1
2023-02-19T02:25:21.809Z,14
2023-02-19T02:27:50.069Z,10
2023-02-19T02:29:04.797Z,10.7
2023-02-19T02:30:18.343Z,13.2
2023-02-19T02:32:46.603Z,8.9
2023-02-19T02:35:14.861Z,8.7
2023-02-19T02:37:43.115Z,10.2
2023-02-19T02:42:39.631Z,7.6
2023-02-19T02:45:07.883Z,7.7
2023-02-19T02:47:36.148Z,11.1
2023-02-19T02:50:04.401Z,9.5
2023-02-19T02:52:32.664Z,6.7
2023-02-19T02:53:47.390Z,10.4
2023-02-19T02:55:00.942Z,10.6
2023-02-19T02:57:29.199Z,7.9
2023-02-19T02:59:57.448Z,10.1
2023-02-19T03:02:25.708Z,8.8
2023-02-19T03:04:53.969Z,8.6
2023-02-19T03:07:22.225Z,13.1
2023-02-19T03:09:50.478Z,12.1
2023-02-19T03:14:46.998Z,9
2023-02-19T03:17:15.250Z,10.1
2023-02-19T03:18:29.988Z,8.2
2023-02-19T03:19:43.526Z,8.7
2023-02-19T03:22:11.784Z,8.7
2023-02-19T03:24:40.044Z,10.9
2023-02-19T03:27:08.302Z,10
2023-02-19T03:29:36.563Z,10.2
2023-02-19T03:32:04.817Z,7.5
2023-02-19T03:34:33.074Z,8.3
2023-02-19T03:37:01.332Z,7.4
2023-02-19T03:39:29.590Z,7.8
2023-02-19T03:41:57.842Z,8.3
2023-02-19T03:44:26.103Z,8.7
2023-02-19T03:46:54.361Z,7.5
2023-02-19T03:49:22.622Z,8.4
2023-02-19T03:51:50.878Z,9.7
2023-02-19T03:54:19.137Z,8.3
2023-02-19T03:56:47.387Z,9.9
2023-02-19T03:59:15.648Z,9.9
2023-02-19T04:01:43.909Z,6
2023-02-19T04:04:12.165Z,7.9
2023-02-19T04:06:40.415Z,8
2023-02-19T04:07:55.169Z,11.3
2023-02-19T04:09:08.717Z,8.2
2023-02-19T04:11:36.973Z,7.9
2023-02-19T04:16:33.486Z,8.2
2023-02-19T04:19:01.739Z,11
2023-02-19T04:21:30.002Z,10.5
2023-02-19T04:23:58.255Z,7.2
2023-02-19T04:26:26.514Z,12.2
2023-02-19T04:28:54.773Z,10.8
2023-02-19T04:31:23.020Z,7.6
2023-02-19T04:32:37.758Z,5.4
2023-02-19T04:33:51.302Z,10
2023-02-19T04:36:19.560Z,7
2023-02-19T04:38:47.813Z,8.3
2023-02-19T04:41:16.075Z,12.2
2023-02-19T04:43:44.330Z,8.5
2023-02-19T04:48:40.841Z,7.5
2023-02-19T04:51:09.098Z,8.7
2023-02-19T04:53:37.355Z,9.4
2023-02-19T04:56:05.620Z,7.2
2023-02-19T04:57:20.344Z,11.9
2023-02-19T04:58:33.888Z,11.2
2023-02-19T05:01:02.146Z,8.4
2023-02-19T05:03:30.408Z,9.4
2023-02-19T05:05:58.661Z,8.4
2023-02-19T05:08:26.924Z,9
2023-02-19T05:10:55.172Z,6.7
2023-02-19T05:13:23.434Z,8.8
2023-02-19T05:15:51.695Z,9.5
2023-02-19T05:20:48.207Z,8.1
2023-02-19T05:22:02.944Z,9.8
2023-02-19T05:23:16.481Z,9
2023-02-19T05:25:44.743Z,9.3
2023-02-19T05:28:12.994Z,8.7
2023-02-19T05:30:41.256Z,11.1
2023-02-19T05:33:09.517Z,9.5
2023-02-19T05:35:37.774Z,10.8
2023-02-19T05:38:06.027Z,8.8
2023-02-19T05:40:34.283Z,11.6
2023-02-19T05:43:02.537Z,7.6
2023-02-19T05:45:30.798Z,10.7
2023-02-19T05:46:45.529Z,10
2023-02-19T05:50:27.562Z,7.6
2023-02-19T05:52:55.823Z,9.7
2023-02-19T05:55:24.079Z,7.7
2023-02-19T05:57:52.337Z,8.7
2023-02-19T06:00:20.598Z,9.5
2023-02-19T06:02:48.856Z,7.2
2023-02-19T06:05:17.110Z,7.8
2023-02-19T06:07:45.366Z,10.4
2023-02-19T06:10:13.623Z,8.6
2023-02-19T06:11:28.351Z,9.3
2023-02-19T06:12:41.903Z,10.1
2023-02-19T06:15:10.153Z,10.4
2023-02-19T06:17:38.413Z,10
2023-02-19T06:22:34.931Z,9.3
2023-02-19T06:25:03.184Z,8.6
2023-02-19T06:27:31.447Z,10.4
2023-02-19T06:29:59.698Z,10.8
2023-02-19T06:32:27.956Z,11.6
2023-02-19T06:34:56.216Z,9.7
2023-02-19T06:36:10.951Z,9
2023-02-19T06:37:24.488Z,9
2023-02-19T06:39:52.752Z,9.9
2023-02-19T06:42:21.005Z,11.7
2023-02-19T06:44:49.261Z,11
2023-02-19T06:47:17.518Z,9.3
2023-02-19T06:49:45.786Z,10.9
2023-02-19T06:54:42.295Z,12.3
2023-02-19T06:57:10.553Z,11.1
2023-02-19T06:59:38.810Z,12.5
2023-02-19T07:00:53.543Z,11.4
2023-02-19T07:02:07.087Z,7.3
2023-02-19T07:04:35.341Z,9.4
2023-02-19T07:07:03.604Z,11.9
2023-02-19T07:09:31.860Z,9.4
2023-02-19T07:12:00.116Z,11.1
2023-02-19T07:14:28.370Z,10.6
2023-02-19T07:16:56.632Z,7.9
2023-02-19T07:19:24.891Z,10.6
2023-02-19T07:21:53.145Z,9.4
2023-02-19T07:25:36.138Z,11.4
2023-02-19T07:26:49.685Z,10
2023-02-19T07:29:17.941Z,14.8
2023-02-19T07:31:46.195Z,9.1
2023-02-19T07:34:14.452Z,12.8
2023-02-19T07:36:42.710Z,12.9
2023-02-19T07:39:10.964Z,10.9
2023-02-19T07:41:39.226Z,13
2023-02-19T07:44:07.482Z,11.2
2023-02-19T07:46:35.740Z,9.6
2023-02-19T07:49:03.996Z,8.2
2023-02-19T07:50:18.738Z,12.2
2023-02-19T07:51:32.271Z,10.8
2023-02-19T07:56:28.788Z,11.2
2023-02-19T07:58:57.040Z,12.8
2023-02-19T08:01:25.294Z,9.3
2023-02-19T08:03:53.555Z,11.8
2023-02-19T08:06:21.810Z,9.8
2023-02-19T08:08:50.071Z,12.7
2023-02-19T08:11:18.323Z,9.1
2023-02-19T08:13:46.589Z,10.6
2023-02-19T08:15:01.316Z,16.3
2023-02-19T08:16:14.860Z,14
2023-02-19T08:18:43.121Z,12.3
2023-02-19T08:21:11.374Z,14.5
2023-02-19T08:23:39.635Z,14
2023-02-19T08:28:36.145Z,12
2023-02-19T08:31:04.405Z,11.5
2023-02-19T08:33:32.658Z,8.6
2023-02-19T08:36:00.921Z,6.9
2023-02-19T08:38:29.173Z,10.4
2023-02-19T08:39:43.903Z,13.8
2023-02-19T08:40:57.451Z,13.4
2023-02-19T08:43:25.707Z,12.5
2023-02-19T08:45:53.966Z,10.7
2023-02-19T08:48:22.221Z,10.2
2023-02-19T08:50:50.476Z,15.5
2023-02-19T08:53:18.740Z,14.1
2023-02-19T08:55:46.988Z,12.8
2023-02-19T09:00:43.502Z,16.2
2023-02-19T09:03:11.765Z,13
2023-02-19T09:04:26.492Z,11.2
2023-02-19T09:05:40.036Z,14.1
2023-02-19T09:08:08.294Z,11.2
2023-02-19T09:10:36.551Z,13.9
2023-02-19T09:13:04.808Z,12
2023-02-19T09:15:33.066Z,15.2
2023-02-19T09:18:01.327Z,12.1
2023-02-19T09:20:29.585Z,8.9
2023-02-19T09:22:57.839Z,10.6
2023-02-19T09:25:26.097Z,11.1
2023-02-19T09:27:54.356Z,13.2
2023-02-19T09:30:22.616Z,9.9
2023-02-19T09:32:50.874Z,10.5
2023-02-19T09:35:19.124Z,9
2023-02-19T09:37:47.386Z,12.5
2023-02-19T09:40:15.640Z,11.5
2023-02-19T09:42:43.900Z,10.7
2023-02-19T09:45:12.153Z,10.9
2023-02-19T09:47:40.409Z,9.7
2023-02-19T09:50:08.667Z,13.6
2023-02-19T09:52:36.929Z,11.9
2023-02-19T09:53:51.674Z,12.8
2023-02-19T09:55:05.225Z,8.9
2023-02-19T09:57:33.482Z,10.7
2023-02-19T10:02:29.992Z,8.7
2023-02-19T10:04:58.245Z,8.6
2023-02-19T10:07:26.507Z,9.5
2023-02-19T10:09:54.764Z,9
2023-02-19T10:12:23.019Z,5.7
2023-02-19T10:14:51.277Z,10.3
2023-02-19T10:17:19.530Z,8.9
2023-02-19T10:18:34.263Z,12.4
2023-02-19T10:19:47.809Z,8.9
2023-02-19T10:22:16.069Z,9.9
2023-02-19T10:24:44.321Z,13.6
2023-02-19T10:27:12.582Z,9.3
2023-02-19T10:29:40.833Z,8
2023-02-19T10:34:37.353Z,7
2023-02-19T10:37:05.607Z,9.8
2023-02-19T10:39:33.864Z,6.2
2023-02-19T10:42:02.126Z,6.5
2023-02-19T10:44:30.396Z,9.1
2023-02-19T10:46:58.658Z,6.5
2023-02-19T10:49:26.912Z,6.8
2023-02-19T10:51:55.169Z,9.4
2023-02-19T10:54:23.426Z,11.7
2023-02-19T10:56:51.677Z,10.6
2023-02-19T10:59:19.939Z,5.9
2023-02-19T11:01:48.199Z,7.1
2023-02-19T11:06:44.708Z,7.4
2023-02-19T11:07:59.441Z,7.6
2023-02-19T11:09:12.983Z,5.4
2023-02-19T11:11:41.241Z,9
2023-02-19T11:14:09.503Z,8.8
2023-02-19T11:16:37.760Z,7.1
2023-02-19T11:19:06.009Z,6.1
2023-02-19T11:21:34.268Z,6.9
2023-02-19T11:24:02.531Z,7
2023-02-19T11:26:30.781Z,5.2
2023-02-19T11:28:59.043Z,5.1
2023-02-19T11:31:27.294Z,6.7
2023-02-19T11:32:42.036Z,8.2
2023-02-19T11:36:24.068Z,6.5
2023-02-19T11:38:52.320Z,6.2
2023-02-19T11:41:20.578Z,6.1
2023-02-19T11:43:48.830Z,7.6
2023-02-19T11:46:17.094Z,5.6
2023-02-19T11:48:45.346Z,6.2
2023-02-19T11:51:13.605Z,5.4
2023-02-19T11:53:41.864Z,8.1
2023-02-19T11:56:10.116Z,6.2
2023-02-19T11:57:24.849Z,4.9
2023-02-19T11:58:38.394Z,6.4
2023-02-19T12:01:06.655Z,4.4
2023-02-19T12:03:34.912Z,7.2
2023-02-19T12:08:31.423Z,5
2023-02-19T12:10:59.683Z,7.1
2023-02-19T12:13:27.939Z,4.8
2023-02-19T12:15:56.189Z,7.5
2023-02-19T12:18:24.453Z,7
2023-02-19T12:20:52.711Z,5.5
2023-02-19T12:22:07.443Z,5.7
2023-02-19T12:23:20.988Z,6.6
2023-02-19T12:25:49.240Z,6.1
2023-02-19T12:28:17.504Z,5.3
2023-02-19T12:30:45.758Z,8.6
2023-02-19T12:33:14.011Z,7.8
2023-02-19T12:35:42.271Z,6.2
2023-02-19T12:40:38.784Z,6
2023-02-19T12:43:07.038Z,6.4
2023-02-19T12:45:35.303Z,6
2023-02-19T12:46:50.032Z,9.7
2023-02-19T12:48:03.579Z,7.5
2023-02-19T12:50:31.832Z,7.3
2023-02-19T12:53:00.090Z,5.8
2023-02-19T12:55:28.345Z,7.8
2023-02-19T12:57:56.607Z,7
2023-02-19T13:00:24.860Z,4.8
2023-02-19T13:02:53.122Z,6.3
2023-02-19T13:05:21.376Z,5.2
2023-02-19T13:07:49.632Z,5.5
2023-02-19T13:11:32.619Z,5.8
2023-02-19T13:12:46.165Z,6.1
2023-02-19T13:15:14.425Z,11.5
2023-02-19T13:17:42.679Z,5.6
2023-02-19T13:20:10.935Z,9.3
2023-02-19T13:22:39.197Z,8.7
2023-02-19T13:25:07.458Z,6.3
2023-02-19T13:27:35.711Z,5.6
2023-02-19T13:30:03.972Z,8.4
2023-02-19T13:32:32.229Z,5.4
2023-02-19T13:35:00.483Z,7.3
2023-02-19T13:36:15.219Z,5.6
2023-02-19T13:37:28.755Z,7.6
2023-02-19T13:42:25.274Z,4.3
2023-02-19T13:44:53.533Z,3.9
2023-02-19T13:47:21.787Z,5.5
2023-02-19T13:49:50.048Z,4.8
2023-02-19T13:52:18.300Z,3
2023-02-19T13:54:46.560Z,7.2
2023-02-19T13:57:14.812Z,7.2
2023-02-19T13:59:43.074Z,5.6
2023-02-19T14:00:57.806Z,4.6
2023-02-19T14:02:11.352Z,8.8
2023-02-19T14:04:39.610Z,9.6
2023-02-19T14:07:07.860Z,6.9
2023-02-19T14:09:36.120Z,7.7
2023-02-19T14:14:32.634Z,2.9
2023-02-19T14:17:00.890Z,6.6
2023-02-19T14:19:29.154Z,5.9
2023-02-19T14:21:57.405Z,4.5
2023-02-19T14:24:25.659Z,6.4
2023-02-19T14:25:40.402Z,5.3
2023-02-19T14:26:53.942Z,6.3
2023-02-19T14:29:22.200Z,7.1
2023-02-19T14:31:50.460Z,8
2023-02-19T14:34:18.708Z,6
2023-02-19T14:36:46.970Z,7.9
2023-02-19T14:39:15.226Z,8.5
2023-02-19T14:41:43.480Z,8.9
2023-02-19T14:46:39.993Z,6.9
2023-02-19T14:49:08.254Z,6.5
2023-02-19T14:50:22.990Z,4.8
2023-02-19T14:51:36.535Z,6.3
2023-02-19T14:54:04.783Z,5.4
2023-02-19T14:56:33.044Z,6.7
2023-02-19T14:59:01.300Z,6.5
2023-02-19T15:01:29.560Z,5.5
2023-02-19T15:03:57.810Z,5.9
2023-02-19T15:06:26.073Z,5.6
2023-02-19T15:08:54.324Z,8.3
2023-02-19T15:11:22.590Z,8.3
2023-02-19T15:13:50.846Z,8.7
2023-02-19T15:16:19.104Z,6.9
2023-02-19T15:18:47.357Z,7.2
2023-02-19T15:21:15.614Z,8.8
2023-02-19T15:23:43.866Z,8
2023-02-19T15:26:12.131Z,5
2023-02-19T15:28:40.382Z,6
2023-02-19T15:31:08.638Z,7.3
2023-02-19T15:33:36.902Z,7.1
2023-02-19T15:36:05.151Z,7
2023-02-19T15:38:33.413Z,5.7
2023-02-19T15:39:48.160Z,6.6
2023-02-19T15:41:01.701Z,8.3
2023-02-19T15:43:29.966Z,6.2
2023-02-19T15:48:26.478Z,6.1
2023-02-19T15:50:54.736Z,6.5
2023-02-19T15:53:22.986Z,8.5
2023-02-19T15:55:51.246Z,8
2023-02-19T15:58:19.506Z,6.6
2023-02-19T16:00:47.759Z,10.7
2023-02-19T16:03:16.013Z,8.2
2023-02-19T16:04:30.751Z,8.6
2023-02-19T16:05:44.289Z,8.7
2023-02-19T16:08:12.550Z,10.1
2023-02-19T16:10:40.802Z,8
2023-02-19T16:13:09.065Z,6.9
2023-02-19T16:15:37.320Z,9.8
2023-02-19T16:20:33.836Z,7.8
2023-02-19T16:23:02.093Z,6.9
2023-02-19T16:25:30.347Z,7.7
2023-02-19T16:27:58.607Z,9.8
2023-02-19T16:29:13.342Z,8.5
2023-02-19T16:30:26.884Z,11.1
2023-02-19T16:32:55.135Z,8.4
2023-02-19T16:35:23.399Z,5.5
2023-02-19T16:37:51.650Z,9
2023-02-19T16:40:19.909Z,7.1
2023-02-19T16:42:48.166Z,9
2023-02-19T16:45:16.428Z,8
2023-02-19T16:47:44.684Z,7.3
2023-02-19T16:52:41.198Z,6.2
2023-02-19T16:53:55.930Z,9.3
2023-02-19T16:55:09.476Z,8.4
2023-02-19T16:57:37.730Z,8.3
2023-02-19T17:00:05.983Z,10.9
2023-02-19T17:02:34.248Z,5.9
2023-02-19T17:05:02.503Z,8.4
2023-02-19T17:07:30.755Z,10.2
2023-02-19T17:09:59.021Z,7.9
2023-02-19T17:12:27.278Z,7.6
2023-02-19T17:14:55.531Z,12
2023-02-19T17:17:23.787Z,9
2023-02-19T17:18:38.519Z,9.9
2023-02-19T17:22:20.553Z,11.9
2023-02-19T17:24:48.816Z,6
2023-02-19T17:27:17.066Z,8.7
2023-02-19T17:29:45.326Z,6.8
2023-02-19T17:32:13.590Z,11.8
2023-02-19T17:34:41.842Z,9.4
2023-02-19T17:37:10.104Z,8.4
2023-02-19T17:39:38.358Z,11.6
2023-02-19T17:42:06.610Z,12.9
2023-02-19T17:43:21.347Z,13
2023-02-19T17:44:34.894Z,12.4
2023-02-19T17:47:03.147Z,15.2
2023-02-19T17:49:31.405Z,15.4
2023-02-19T17:54:27.918Z,14
2023-02-19T17:56:56.175Z,13
2023-02-19T17:59:24.431Z,14.2
2023-02-19T18:01:52.693Z,11.5
2023-02-19T18:04:20.953Z,12.7
2023-02-19T18:06:49.204Z,9.6
2023-02-19T18:08:03.944Z,10.7
2023-02-19T18:09:17.490Z,8.2
2023-02-19T18:11:45.744Z,8.8
2023-02-19T18:14:14.003Z,10.9
2023-02-19T18:16:42.261Z,8.9
2023-02-19T18:19:10.519Z,9.5
2023-02-19T18:21:38.773Z,8.9
2023-02-19T18:26:35.288Z,10.4
2023-02-19T18:29:03.544Z,7.1
2023-02-19T18:31:31.797Z,7.5
2023-02-19T18:32:46.537Z,9
2023-02-19T18:34:00.083Z,11.6
2023-02-19T18:36:28.343Z,10.4
2023-02-19T18:38:56.591Z,7.6
2023-02-19T18:41:24.851Z,7.3
2023-02-19T18:43:53.115Z,8.8
2023-02-19T18:46:21.370Z,8.6
2023-02-19T18:48:49.624Z,9.9
2023-02-19T18:51:17.880Z,6.6
2023-02-19T18:53:46.140Z,9.5
2023-02-19T18:57:29.127Z,10.4
2023-02-19T18:58:42.673Z,7.6
2023-02-19T19:01:10.927Z,9.3
2023-02-19T19:03:39.186Z,10.3
2023-02-19T19:06:07.445Z,11.5
2023-02-19T19:08:35.706Z,9.6
2023-02-19T19:11:03.965Z,12.4
2023-02-19T19:13:32.221Z,7
2023-02-19T19:16:00.474Z,11.1
2023-02-19T19:18:28.728Z,10.8
2023-02-19T19:20:56.988Z,14
2023-02-19T19:22:11.722Z,12.2
2023-02-19T19:23:25.262Z,9.9
2023-02-19T19:28:21.779Z,10.7
2023-02-19T19:30:50.037Z,8.1
2023-02-19T19:33:18.296Z,9.6
2023-02-19T19:35:46.550Z,9.6
2023-02-19T19:38:14.810Z,8.9
2023-02-19T19:40:43.064Z,13.2
2023-02-19T19:43:11.326Z,9.7
2023-02-19T19:45:39.586Z,11.9
2023-02-19T19:46:54.310Z,12.6
2023-02-19T19:48:07.862Z,8.8
2023-02-19T19:50:36.114Z,10.7
2023-02-19T19:53:04.378Z,11.1
2023-02-19T19:55:32.632Z,7.1
2023-02-19T20:00:29.143Z,10.9
2023-02-19T20:02:57.405Z,11.7
2023-02-19T20:05:25.657Z,15.9
2023-02-19T20:07:53.913Z,12.3
2023-02-19T20:10:22.177Z,12.8
2023-02-19T20:11:36.909Z,11.2
2023-02-19T20:12:50.451Z,12.1
2023-02-19T20:15:18.707Z,10.8
2023-02-19T20:17:46.962Z,10
2023-02-19T20:20:15.229Z,16.3
2023-02-19T20:22:43.485Z,9
2023-02-19T20:25:11.736Z,10.6
2023-02-19T20:27:40.000Z,9.5
2023-02-19T20:32:36.511Z,10.6
2023-02-19T20:35:04.767Z,9
2023-02-19T20:36:19.498Z,9.8
2023-02-19T20:37:33.044Z,10
2023-02-19T20:40:01.301Z,10.6
2023-02-19T20:42:29.564Z,10.7
2023-02-19T20:44:57.822Z,11.6
2023-02-19T20:47:26.079Z,9
2023-02-19T20:49:54.331Z,10
2023-02-19T20:52:22.588Z,11.6
2023-02-19T20:54:50.848Z,10.4
2023-02-19T20:57:19.103Z,8.5
2023-02-19T20:59:47.365Z,13.9
2023-02-19T21:02:15.626Z,9.4
2023-02-19T21:04:43.880Z,8.2
2023-02-19T21:07:12.138Z,9.5
2023-02-19T21:09:40.396Z,11.6
2023-02-19T21:12:08.651Z,11.3
2023-02-19T21:14:36.905Z,10.7
2023-02-19T21:17:05.169Z,10.7
2023-02-19T21:19:33.423Z,12.2
2023-02-19T21:22:01.681Z,8.9
2023-02-19T21:24:29.937Z,11.7
2023-02-19T21:25:44.691Z,7.5
2023-02-19T21:26:58.234Z,10.2
2023-02-19T21:29:26.489Z,10
2023-02-19T21:34:23.008Z,12.3
2023-02-19T21:36:51.261Z,7.4
2023-02-19T21:39:19.518Z,8.8
2023-02-19T21:41:47.780Z,10.7
2023-02-19T21:44:16.039Z,11.8
2023-02-19T21:46:44.290Z,10.3
2023-02-19T21:49:12.551Z,12.1
2023-02-19T21:50:27.282Z,10.4
2023-02-19T21:51:40.831Z,8.9
2023-02-19T21:54:09.083Z,13.5
2023-02-19T21:56:37.346Z,9.5
2023-02-19T21:59:05.598Z,8
2023-02-19T22:01:33.856Z,8.6
2023-02-19T22:06:30.374Z,8.9
2023-02-19T22:08:58.630Z,14.6
2023-02-19T22:11:26.891Z,8.1
2023-02-19T22:13:55.152Z,10.1
2023-02-19T22:15:09.877Z,9.3
2023-02-19T22:16:23.419Z,7.9
2023-02-19T22:18:51.676Z,9.3
2023-02-19T22:21:19.933Z,11.3
2023-02-19T22:23:48.191Z,9.7
2023-02-19T22:26:16.457Z,9.7
2023-02-19T22:28:44.709Z,11.5
2023-02-19T22:31:12.971Z,9.6
2023-02-19T22:33:41.225Z,10.6
2023-02-19T22:38:37.737Z,8.1
2023-02-19T22:39:52.477Z,9.3
2023-02-19T22:41:06.016Z,9.8
2023-02-19T22:43:34.269Z,10.5
2023-02-19T22:46:02.527Z,9.6
2023-02-19T22:48:30.788Z,8.4
2023-02-19T22:50:59.044Z,12.6
2023-02-19T22:53:27.300Z,8.6
2023-02-19T22:55:55.560Z,11.9
2023-02-19T22:58:23.821Z,14.4
2023-02-19T23:00:52.073Z,9
2023-02-19T23:03:20.331Z,8.5
2023-02-19T23:04:35.059Z,10.6
2023-02-19T23:08:17.093Z,9.9
2023-02-19T23:10:45.359Z,10.5
2023-02-19T23:13:13.613Z,10.6
2023-02-19T23:15:41.871Z,10.2
2023-02-19T23:18:10.131Z,10.5
2023-02-19T23:20:38.383Z,10.3
2023-02-19T23:23:06.645Z,10.8
2023-02-19T23:25:34.898Z,11.9
2023-02-19T23:28:03.156Z,9.3
2023-02-19T23:29:17.885Z,9.7
2023-02-19T23:30:31.436Z,8.5
2023-02-19T23:32:59.691Z,7.8
2023-02-19T23:35:27.951Z,9
2023-02-19T23:40:24.464Z,9.7
2023-02-19T23:42:52.717Z,9
2023-02-19T23:45:20.976Z,9.3
2023-02-19T23:47:49.234Z,8
2023-02-19T23:50:17.488Z,8.2
2023-02-19T23:52:45.748Z,9.8
2023-02-19T23:54:00.479Z,10
2023-02-19T23:55:14.024Z,11.6
2023-02-19T23:57:42.284Z,9.1
